Time;durP1;ratioP1;P1;durP2;ratioP2;P2;SDS_P1;SDS_P2;PMS_P1;PMS_P2;Temp;Humidity;BMP_temperature;BMP_pressure;BME280_temperature;BME280_humidity;BME280_pressure;Samples;Min_cycle;Max_cycle;Signal;HPM_P1;HPM_P2
2020/12/21 00:01:31;;;;;;;14.07;8.75;;;8.10;56.20;;;;;;5054175;28;20028;-72
2020/12/21 00:03:57;;;;;;;16.67;10.55;;;8.10;56.20;;;;;;5054206;28;20032;-73
2020/12/21 00:06:23;;;;;;;17.77;11.30;;;8.20;56.20;;;;;;5054451;28;20512;-72
2020/12/21 00:08:49;;;;;;;17.88;11.35;;;8.20;56.20;;;;;;5054151;28;20021;-72
2020/12/21 00:11:14;;;;;;;17.98;10.80;;;8.10;56.20;;;;;;5051763;28;20025;-73
2020/12/21 00:13:43;;;;;;;17.58;11.57;;;8.10;56.10;;;;;;5052895;28;20029;-72
2020/12/21 00:16:12;;;;;;;14.90;9.35;;;8.20;56.20;;;;;;5051088;28;20037;-72
2020/12/21 00:18:40;;;;;;;15.85;10.45;;;8.10;56.10;;;;;;5053369;28;20025;-72
2020/12/21 00:21:08;;;;;;;16.98;10.27;;;8.20;56.20;;;;;;5053857;28;20389;-72
2020/12/21 00:23:34;;;;;;;16.17;9.82;;;8.10;56.10;;;;;;5053894;28;20486;-73
2020/12/21 00:26:00;;;;;;;19.02;12.35;;;8.20;56.20;;;;;;5053519;28;20045;-72
2020/12/21 00:28:29;;;;;;;21.77;13.55;;;8.20;56.20;;;;;;5053684;28;20033;-72
2020/12/21 00:30:55;;;;;;;21.20;12.18;;;8.20;56.20;;;;;;5053767;28;20386;-72
2020/12/21 00:33:20;;;;;;;20.25;12.73;;;8.20;56.20;;;;;;5053708;28;20017;-72
2020/12/21 00:35:46;;;;;;;16.50;10.85;;;8.20;56.20;;;;;;5053720;28;20029;-73
2020/12/21 00:38:12;;;;;;;18.67;11.10;;;8.20;56.20;;;;;;5053629;28;20447;-72
2020/12/21 00:40:37;;;;;;;18.95;12.45;;;8.20;56.20;;;;;;5053534;28;20025;-72
2020/12/21 00:43:03;;;;;;;22.65;12.27;;;8.20;56.20;;;;;;5053591;28;20364;-72
2020/12/21 00:45:29;;;;;;;19.98;12.63;;;8.10;56.20;;;;;;5053562;28;20032;-72
2020/12/21 00:47:59;;;;;;;19.42;12.63;;;8.10;56.20;;;;;;5052260;28;20025;-72
2020/12/21 00:50:25;;;;;;;20.67;13.55;;;8.10;56.10;;;;;;5053474;28;20021;-72
2020/12/21 00:52:52;;;;;;;23.23;13.70;;;8.10;56.20;;;;;;5052172;28;20044;-73
2020/12/21 00:55:18;;;;;;;22.95;14.38;;;8.10;56.20;;;;;;5053697;28;20482;-72
2020/12/21 00:57:44;;;;;;;19.95;12.40;;;8.00;56.20;;;;;;5052168;28;20111;-72
2020/12/21 01:00:10;;;;;;;18.80;11.65;;;8.00;56.10;;;;;;5053324;28;20025;-73
2020/12/21 01:02:35;;;;;;;18.83;12.82;;;8.00;56.20;;;;;;5053885;28;20021;-72
2020/12/21 01:05:01;;;;;;;18.20;11.85;;;8.00;56.30;;;;;;5053319;28;20521;-72
2020/12/21 01:07:27;;;;;;;21.88;13.35;;;8.00;56.30;;;;;;5053576;28;20017;-72
2020/12/21 01:09:53;;;;;;;19.65;12.85;;;8.00;56.30;;;;;;5053809;28;20033;-73
2020/12/21 01:12:18;;;;;;;21.70;13.85;;;8.00;56.30;;;;;;5053242;28;20029;-72
2020/12/21 01:14:44;;;;;;;22.73;13.98;;;8.00;56.30;;;;;;5053217;28;20035;-72
2020/12/21 01:17:10;;;;;;;18.10;11.77;;;8.00;56.30;;;;;;5053463;28;20021;-72
2020/12/21 01:19:36;;;;;;;16.40;11.25;;;8.00;56.30;;;;;;5053209;28;20021;-73
2020/12/21 01:22:02;;;;;;;19.38;12.20;;;8.00;56.40;;;;;;5053410;28;20485;-73
2020/12/21 01:24:28;;;;;;;19.17;12.30;;;8.00;56.30;;;;;;5052827;28;20533;-73
2020/12/21 01:26:53;;;;;;;16.55;11.13;;;8.00;56.30;;;;;;5051925;28;20032;-72
2020/12/21 01:29:19;;;;;;;20.00;12.15;;;8.00;56.30;;;;;;5053076;28;20029;-72
2020/12/21 01:31:45;;;;;;;20.23;12.75;;;8.10;56.30;;;;;;5051803;28;20032;-72
2020/12/21 01:34:13;;;;;;;17.92;11.90;;;8.10;56.30;;;;;;5051874;28;20035;-72
2020/12/21 01:36:39;;;;;;;15.93;10.45;;;8.00;56.20;;;;;;5053054;28;20029;-72
2020/12/21 01:39:04;;;;;;;19.55;11.75;;;8.10;56.30;;;;;;5053005;28;20104;-72
2020/12/21 01:41:30;;;;;;;20.73;12.43;;;8.10;56.20;;;;;;5057014;28;20115;-72
2020/12/21 01:43:56;;;;;;;18.98;12.73;;;8.10;56.20;;;;;;5055637;28;20021;-72
2020/12/21 01:46:22;;;;;;;22.25;13.75;;;8.10;56.10;;;;;;5056840;28;20024;-72
2020/12/21 01:48:48;;;;;;;17.30;11.48;;;8.10;56.10;;;;;;5056802;28;20029;-72
2020/12/21 01:51:24;;;;;;;18.85;12.88;;;8.10;56.10;;;;;;5056777;28;20040;-72
2020/12/21 01:53:51;;;;;;;20.10;12.57;;;8.10;56.00;;;;;;5055427;28;20470;-72
2020/12/21 01:56:17;;;;;;;21.20;13.45;;;8.10;56.00;;;;;;5055455;28;20028;-72
2020/12/21 01:58:44;;;;;;;20.52;12.10;;;8.10;56.00;;;;;;5056938;28;20025;-72
2020/12/21 02:01:13;;;;;;;18.58;11.60;;;8.10;56.00;;;;;;5055250;28;20482;-72
2020/12/21 02:03:39;;;;;;;17.25;11.02;;;8.10;56.10;;;;;;5056519;28;20440;-72
2020/12/21 02:06:05;;;;;;;20.65;12.20;;;8.10;56.10;;;;;;5056481;28;20070;-72
2020/12/21 02:08:31;;;;;;;20.70;12.98;;;8.10;56.10;;;;;;5056442;28;20348;-72
2020/12/21 02:10:57;;;;;;;22.60;14.30;;;8.10;56.70;;;;;;5054439;28;20044;-73
2020/12/21 02:13:23;;;;;;;18.52;11.98;;;8.00;56.00;;;;;;5055469;28;20052;-73
2020/12/21 02:15:48;;;;;;;24.13;13.15;;;8.10;56.00;;;;;;5054082;28;20029;-72
2020/12/21 02:18:14;;;;;;;21.33;13.35;;;8.10;56.10;;;;;;5056008;28;20099;-72
2020/12/21 02:20:40;;;;;;;18.75;12.27;;;8.10;56.10;;;;;;5055558;28;20378;-72
2020/12/21 02:23:06;;;;;;;21.00;12.77;;;8.10;56.10;;;;;;5056173;28;20025;-73
2020/12/21 02:25:32;;;;;;;19.02;12.40;;;8.10;56.10;;;;;;5055834;28;20052;-72
2020/12/21 02:27:57;;;;;;;20.58;12.98;;;8.10;56.10;;;;;;5056096;28;20016;-72
2020/12/21 02:30:23;;;;;;;26.00;14.30;;;8.10;56.00;;;;;;5056248;28;20028;-72
2020/12/21 02:32:49;;;;;;;22.77;13.68;;;8.10;56.00;;;;;;5056280;28;20036;-73
2020/12/21 02:35:15;;;;;;;19.65;12.82;;;8.10;56.10;;;;;;5055956;28;20033;-72
2020/12/21 02:37:41;;;;;;;20.40;12.80;;;8.10;56.10;;;;;;5055895;28;20049;-72
2020/12/21 02:40:08;;;;;;;20.88;11.95;;;8.10;56.20;;;;;;5055782;28;20021;-72
2020/12/21 02:42:34;;;;;;;20.13;12.10;;;8.10;56.70;;;;;;5055771;28;20025;-73
2020/12/21 02:45:00;;;;;;;18.40;11.25;;;8.10;56.10;;;;;;5055753;28;20017;-72
2020/12/21 02:47:26;;;;;;;18.80;11.65;;;8.10;56.10;;;;;;5055671;28;20474;-72
2020/12/21 02:49:51;;;;;;;18.63;11.77;;;8.10;56.10;;;;;;5054423;28;20120;-72
2020/12/21 02:52:17;;;;;;;21.60;12.90;;;8.10;56.10;;;;;;5054290;28;20017;-72
2020/12/21 02:54:45;;;;;;;19.05;12.50;;;8.10;56.10;;;;;;5054310;28;20474;-72
2020/12/21 02:57:12;;;;;;;16.42;10.60;;;8.10;56.10;;;;;;5055541;28;20074;-72
2020/12/21 02:59:37;;;;;;;16.80;10.50;;;8.10;56.20;;;;;;5055519;28;20021;-72
2020/12/21 03:02:03;;;;;;;20.75;12.93;;;8.10;56.20;;;;;;5054131;28;20474;-72
2020/12/21 03:04:29;;;;;;;18.73;11.90;;;8.10;56.10;;;;;;5054124;28;20474;-72
2020/12/21 03:06:55;;;;;;;15.57;10.48;;;8.10;56.10;;;;;;5053998;28;20112;-72
2020/12/21 03:09:20;;;;;;;17.73;10.95;;;8.10;56.10;;;;;;5055288;28;20100;-72
2020/12/21 03:11:46;;;;;;;17.45;10.90;;;8.10;56.10;;;;;;5055283;28;20029;-72
2020/12/21 03:14:12;;;;;;;18.60;11.27;;;8.10;56.10;;;;;;5055213;28;20112;-72
2020/12/21 03:16:39;;;;;;;21.63;13.70;;;8.10;56.10;;;;;;5055122;28;20112;-72
2020/12/21 03:19:05;;;;;;;24.35;12.82;;;8.10;56.20;;;;;;5055113;28;20440;-72
2020/12/21 03:21:31;;;;;;;18.60;11.88;;;8.20;56.20;;;;;;5054978;28;20428;-72
2020/12/21 03:23:58;;;;;;;18.50;12.32;;;8.10;56.10;;;;;;5054953;28;20478;-72
2020/12/21 03:26:23;;;;;;;18.00;11.57;;;8.20;56.20;;;;;;5054752;28;20041;-72
2020/12/21 03:28:49;;;;;;;20.50;12.45;;;8.20;56.20;;;;;;5055111;28;20024;-72
2020/12/21 03:31:15;;;;;;;21.88;12.73;;;8.10;56.10;;;;;;5054964;28;20028;-72
2020/12/21 03:33:40;;;;;;;19.33;11.50;;;8.10;56.10;;;;;;5053572;28;20082;-72
2020/12/21 03:36:06;;;;;;;20.75;11.93;;;8.10;56.10;;;;;;5054822;28;20066;-72
2020/12/21 03:38:32;;;;;;;19.20;12.02;;;8.10;56.20;;;;;;5054708;28;20048;-73
2020/12/21 03:40:57;;;;;;;18.60;11.57;;;8.10;56.30;;;;;;5054653;28;20104;-72
2020/12/21 03:43:23;;;;;;;16.45;10.05;;;8.10;56.30;;;;;;5053388;28;20055;-73
2020/12/21 03:45:49;;;;;;;25.80;15.68;;;8.20;56.40;;;;;;5054557;28;20078;-73
2020/12/21 03:48:15;;;;;;;21.50;13.55;;;8.20;56.30;;;;;;5054603;28;20078;-73
2020/12/21 03:50:41;;;;;;;20.92;12.93;;;8.10;56.30;;;;;;5043129;28;20060;-73
2020/12/21 03:53:07;;;;;;;19.00;11.48;;;8.20;56.40;;;;;;5033816;28;20066;-72
2020/12/21 03:55:32;;;;;;;18.75;12.27;;;8.20;56.30;;;;;;5033720;28;20091;-72
2020/12/21 03:57:58;;;;;;;21.90;13.30;;;8.20;56.40;;;;;;5033604;28;20030;-72
2020/12/21 04:00:24;;;;;;;21.23;13.10;;;8.10;56.30;;;;;;5033462;28;20063;-72
2020/12/21 04:02:50;;;;;;;27.40;15.65;;;8.10;56.40;;;;;;5033122;28;20036;-72
2020/12/21 04:05:16;;;;;;;22.05;13.63;;;8.20;56.40;;;;;;5033495;28;20096;-73
2020/12/21 04:07:41;;;;;;;19.38;12.27;;;8.20;56.40;;;;;;5033437;28;20018;-72
2020/12/21 04:10:08;;;;;;;24.15;14.55;;;8.20;56.40;;;;;;5048700;28;20045;-72
2020/12/21 04:12:35;;;;;;;20.98;13.70;;;8.10;56.40;;;;;;5051422;28;20339;-72
2020/12/21 04:15:02;;;;;;;22.33;14.27;;;8.10;56.40;;;;;;5052312;28;20363;-72
2020/12/21 04:17:27;;;;;;;25.48;15.35;;;8.10;56.40;;;;;;5052256;28;20446;-72
2020/12/21 04:19:53;;;;;;;24.05;14.25;;;8.20;56.40;;;;;;5052167;28;20104;-72
2020/12/21 04:22:19;;;;;;;18.30;11.63;;;8.10;56.40;;;;;;5053222;28;20017;-72
2020/12/21 04:24:45;;;;;;;21.02;12.68;;;8.10;56.40;;;;;;5052907;28;20501;-73
2020/12/21 04:27:11;;;;;;;22.13;13.30;;;8.20;56.40;;;;;;5053063;28;20029;-72
2020/12/21 04:29:37;;;;;;;21.75;13.52;;;8.20;56.50;;;;;;5051649;28;20083;-72
2020/12/21 04:32:02;;;;;;;20.65;12.52;;;8.20;56.50;;;;;;5052873;28;20056;-72
2020/12/21 04:34:28;;;;;;;23.75;13.23;;;8.20;56.50;;;;;;5052096;28;20425;-72
2020/12/21 04:36:54;;;;;;;22.45;13.77;;;8.20;56.50;;;;;;5053704;28;20025;-72
2020/12/21 04:39:21;;;;;;;20.63;12.70;;;8.20;56.50;;;;;;5053461;28;20554;-72
2020/12/21 04:41:58;;;;;;;23.08;13.93;;;8.20;56.40;;;;;;5053382;28;20028;-72
2020/12/21 04:44:24;;;;;;;22.52;13.10;;;8.20;56.40;;;;;;5053243;28;20108;-72
2020/12/21 04:47:00;;;;;;;26.00;14.35;;;8.30;56.40;;;;;;5052846;28;20021;-72
2020/12/21 04:49:25;;;;;;;27.52;14.32;;;8.20;56.40;;;;;;5052455;28;20024;-72
2020/12/21 04:51:51;;;;;;;26.77;15.15;;;8.30;56.40;;;;;;5048044;28;20021;-72
2020/12/21 04:54:19;;;;;;;22.90;14.73;;;8.20;56.50;;;;;;5032715;28;20479;-74
2020/12/21 04:56:45;;;;;;;21.75;13.70;;;8.20;56.30;;;;;;5032586;28;20417;-72
2020/12/21 04:59:12;;;;;;;23.55;14.98;;;8.20;56.30;;;;;;5032453;28;20029;-72
2020/12/21 05:01:39;;;;;;;24.73;14.77;;;8.20;56.30;;;;;;5032434;28;20486;-72
2020/12/21 05:04:06;;;;;;;28.85;16.40;;;8.20;56.30;;;;;;5032332;28;20111;-72
2020/12/21 05:06:32;;;;;;;22.85;13.68;;;8.20;56.30;;;;;;5047759;28;20364;-72
2020/12/21 05:09:07;;;;;;;22.88;13.88;;;8.20;56.20;;;;;;5032544;28;20033;-72
2020/12/21 05:11:34;;;;;;;24.02;13.95;;;8.20;56.30;;;;;;5032532;28;20029;-72
2020/12/21 05:14:11;;;;;;;23.33;14.63;;;8.20;56.30;;;;;;5032445;28;20032;-72
2020/12/21 05:16:37;;;;;;;22.65;13.70;;;8.20;56.30;;;;;;5051763;28;20026;-72
2020/12/21 05:19:05;;;;;;;25.33;15.70;;;8.30;56.40;;;;;;5053089;28;20025;-71
2020/12/21 05:21:31;;;;;;;25.33;15.00;;;8.20;56.30;;;;;;5056310;28;20031;-72
2020/12/21 05:23:59;;;;;;;24.90;15.05;;;8.20;56.30;;;;;;5055107;28;20025;-72
2020/12/21 05:26:32;;;;;;;20.85;13.07;;;8.20;56.40;;;;;;5056289;28;20045;-72
2020/12/21 05:28:58;;;;;;;27.80;15.38;;;8.20;56.40;;;;;;5055063;28;20087;-71
2020/12/21 05:31:24;;;;;;;20.73;13.18;;;8.20;56.50;;;;;;5056237;28;20032;-71
2020/12/21 05:33:50;;;;;;;23.48;13.95;;;8.20;56.50;;;;;;5056195;28;20028;-72
2020/12/21 05:36:22;;;;;;;22.98;14.75;;;8.30;56.50;;;;;;5056120;28;20029;-72
2020/12/21 05:38:57;;;;;;;23.40;13.18;;;8.20;56.50;;;;;;5056425;28;20029;-72
2020/12/21 05:41:23;;;;;;;27.88;15.82;;;8.20;56.60;;;;;;5054654;28;20028;-72
2020/12/21 05:43:51;;;;;;;26.95;15.75;;;8.20;56.60;;;;;;5054732;28;20031;-72
2020/12/21 05:46:24;;;;;;;28.55;16.20;;;8.20;56.60;;;;;;5054703;28;20482;-72
2020/12/21 05:48:56;;;;;;;27.73;16.30;;;8.20;56.70;;;;;;5054762;28;20041;-72
2020/12/21 05:51:24;;;;;;;28.20;15.95;;;8.20;56.70;;;;;;5039658;28;20021;-72
2020/12/21 05:53:53;;;;;;;28.15;15.55;;;8.20;56.80;;;;;;5036408;28;20028;-72
2020/12/21 05:56:21;;;;;;;31.67;17.60;;;8.20;56.90;;;;;;5035889;28;20049;-72
2020/12/21 05:58:47;;;;;;;32.72;17.90;;;8.20;57.00;;;;;;5035798;28;20033;-72
2020/12/21 06:01:13;;;;;;;25.77;14.75;;;8.20;57.10;;;;;;5035708;28;20074;-72
2020/12/21 06:03:50;;;;;;;28.00;15.73;;;8.20;57.20;;;;;;5035749;28;20030;-72
2020/12/21 06:06:19;;;;;;;29.45;17.40;;;8.20;57.30;;;;;;5050956;28;20060;-72
2020/12/21 06:08:50;;;;;;;30.33;16.55;;;8.10;57.30;;;;;;5050859;28;20053;-72
2020/12/21 06:11:28;;;;;;;24.77;15.63;;;8.10;57.40;;;;;;5035628;28;20021;-72
2020/12/21 06:14:03;;;;;;;25.98;15.30;;;8.10;57.40;;;;;;5035579;28;20029;-72
2020/12/21 06:16:32;;;;;;;30.55;16.63;;;8.10;57.50;;;;;;5042428;28;20025;-72
2020/12/21 06:19:02;;;;;;;29.48;17.55;;;8.10;57.50;;;;;;5055330;28;20025;-72
2020/12/21 06:21:33;;;;;;;27.30;15.15;;;8.10;57.60;;;;;;5055235;28;20021;-72
2020/12/21 06:23:59;;;;;;;30.85;17.77;;;8.10;57.60;;;;;;5055213;28;20048;-72
2020/12/21 06:26:33;;;;;;;25.30;14.85;;;8.10;57.60;;;;;;5054736;28;20116;-72
2020/12/21 06:29:10;;;;;;;33.88;17.33;;;8.10;57.70;;;;;;5055298;28;20077;-72
2020/12/21 06:31:42;;;;;;;32.65;18.08;;;8.10;57.60;;;;;;5055042;28;20087;-72
2020/12/21 06:34:09;;;;;;;26.80;16.75;;;8.10;57.60;;;;;;5054946;28;20120;-71
2020/12/21 06:36:36;;;;;;;25.25;15.00;;;8.10;57.70;;;;;;5054970;28;20363;-72
2020/12/21 06:39:03;;;;;;;25.25;14.35;;;8.10;57.70;;;;;;5055086;28;20028;-72
2020/12/21 06:41:28;;;;;;;25.08;14.90;;;8.00;57.60;;;;;;5053664;28;20394;-72
2020/12/21 06:43:54;;;;;;;29.58;16.30;;;8.10;57.70;;;;;;5053595;28;20021;-72
2020/12/21 06:46:21;;;;;;;26.38;14.85;;;8.10;57.70;;;;;;5053856;28;20029;-72
2020/12/21 06:49:07;;;;;;;30.85;16.50;;;8.10;57.70;;;;;;5054857;28;20382;-72
2020/12/21 06:51:34;;;;;;;28.70;15.85;;;8.10;57.70;;;;;;5037066;28;20199;-72
2020/12/21 06:54:04;;;;;;;27.27;15.32;;;8.10;57.70;;;;;;5035115;28;20162;-72
2020/12/21 06:56:30;;;;;;;32.50;16.38;;;8.10;57.80;;;;;;5034751;28;20057;-72
2020/12/21 06:58:58;;;;;;;27.88;16.08;;;8.10;57.90;;;;;;5034680;28;20070;-72
2020/12/21 07:01:25;;;;;;;34.58;18.65;;;8.10;58.00;;;;;;5034561;28;20025;-72
2020/12/21 07:03:52;;;;;;;34.88;20.00;;;8.10;58.10;;;;;;5034638;28;20104;-72
2020/12/21 07:06:18;;;;;;;37.80;20.75;;;8.10;57.90;;;;;;5034554;28;20025;-72
2020/12/21 07:08:45;;;;;;;31.98;18.98;;;8.00;57.70;;;;;;5034563;28;20025;-72
2020/12/21 07:11:21;;;;;;;31.58;18.15;;;8.00;57.70;;;;;;5034485;28;20049;-72
2020/12/21 07:13:49;;;;;;;36.45;19.73;;;8.00;57.80;;;;;;5034508;28;20025;-71
2020/12/21 07:16:17;;;;;;;37.35;20.17;;;8.00;57.80;;;;;;5050920;28;20029;-72
2020/12/21 07:18:43;;;;;;;32.25;18.05;;;8.00;57.80;;;;;;5054233;28;20051;-72
2020/12/21 07:21:09;;;;;;;29.23;16.60;;;8.00;57.90;;;;;;5054197;28;20075;-72
2020/12/21 07:23:39;;;;;;;30.38;17.92;;;8.00;58.00;;;;;;5054120;28;20018;-72
2020/12/21 07:26:09;;;;;;;32.10;18.60;;;8.00;58.10;;;;;;5053976;28;20064;-72
2020/12/21 07:28:35;;;;;;;34.28;18.52;;;8.10;58.10;;;;;;5053944;28;20047;-72
2020/12/21 07:31:08;;;;;;;34.20;18.20;;;8.10;58.10;;;;;;5052764;28;20475;-72
2020/12/21 07:33:35;;;;;;;33.00;18.33;;;8.10;58.10;;;;;;5054013;28;20115;-72
2020/12/21 07:36:02;;;;;;;37.75;19.80;;;8.10;57.80;;;;;;5052573;28;20025;-71
2020/12/21 07:38:32;;;;;;;41.75;21.25;;;8.10;57.70;;;;;;5051829;28;20462;-72
2020/12/21 07:40:58;;;;;;;55.00;26.02;;;8.10;57.80;;;;;;5053725;28;20024;-72
2020/12/21 07:43:29;;;;;;;51.17;24.95;;;8.20;57.90;;;;;;5053741;28;20027;-72
2020/12/21 07:46:01;;;;;;;52.60;26.70;;;8.20;57.90;;;;;;5053833;28;20040;-72
2020/12/21 07:48:28;;;;;;;47.95;24.73;;;8.20;57.90;;;;;;5053753;28;20079;-72
2020/12/21 07:50:54;;;;;;;70.45;33.28;;;8.20;57.90;;;;;;5041177;28;20029;-72
2020/12/21 07:53:23;;;;;;;56.00;27.83;;;8.30;58.00;;;;;;5033656;28;20030;-72
2020/12/21 07:55:56;;;;;;;53.83;26.80;;;8.30;58.00;;;;;;5048843;28;20034;-72
2020/12/21 07:58:21;;;;;;;37.22;19.77;;;8.30;58.00;;;;;;5033534;28;20017;-72
2020/12/21 08:00:58;;;;;;;37.35;20.08;;;8.40;58.00;;;;;;5033376;28;20031;-72
2020/12/21 08:03:26;;;;;;;40.13;20.67;;;8.40;57.90;;;;;;5033419;28;20025;-72
2020/12/21 08:06:07;;;;;;;39.63;23.05;;;8.40;57.70;;;;;;5048666;28;20083;-72
2020/12/21 08:08:32;;;;;;;33.67;19.38;;;8.50;57.60;;;;;;5033363;28;20064;-72
2020/12/21 08:10:58;;;;;;;39.55;23.00;;;8.50;57.40;;;;;;5033180;28;20041;-72
2020/12/21 08:13:24;;;;;;;40.30;22.00;;;8.50;57.50;;;;;;5037904;28;20025;-72
2020/12/21 08:15:50;;;;;;;39.85;21.98;;;8.50;57.60;;;;;;5051727;28;20028;-72
2020/12/21 08:18:16;;;;;;;32.20;19.27;;;8.60;57.80;;;;;;5053099;28;20112;-72
2020/12/21 08:20:49;;;;;;;36.75;18.85;;;8.60;57.70;;;;;;5052968;28;20028;-72
2020/12/21 08:23:23;;;;;;;36.88;19.45;;;8.70;57.80;;;;;;5053015;28;20067;-73
2020/12/21 08:25:49;;;;;;;40.17;22.10;;;8.70;57.70;;;;;;5052738;28;20497;-72
2020/12/21 08:28:35;;;;;;;44.00;23.05;;;8.70;57.50;;;;;;5052687;28;20031;-72
2020/12/21 08:31:10;;;;;;;47.08;24.92;;;8.80;58.00;;;;;;5051366;28;20143;-72
2020/12/21 08:33:38;;;;;;;46.95;24.00;;;8.80;57.10;;;;;;5052689;28;20475;-74
2020/12/21 08:36:21;;;;;;;42.97;21.98;;;8.90;57.10;;;;;;5052595;28;20409;-72
2020/12/21 08:38:48;;;;;;;42.92;22.23;;;8.90;56.90;;;;;;5052946;28;20097;-73
2020/12/21 08:41:14;;;;;;;45.38;22.50;;;8.90;57.00;;;;;;5051069;28;20074;-72
2020/12/21 08:43:40;;;;;;;47.17;24.75;;;8.90;57.00;;;;;;5052536;28;20025;-72
2020/12/21 08:46:11;;;;;;;43.67;23.45;;;9.00;56.60;;;;;;5052547;28;20028;-72
2020/12/21 08:48:42;;;;;;;44.58;22.20;;;9.00;56.60;;;;;;5052493;28;20049;-72
2020/12/21 08:51:08;;;;;;;53.00;25.90;;;9.00;56.60;;;;;;5038234;28;20108;-73
2020/12/21 08:53:34;;;;;;;49.97;24.10;;;9.10;56.50;;;;;;5032357;28;20112;-72
2020/12/21 08:56:08;;;;;;;47.35;24.70;;;9.10;56.40;;;;;;5032494;28;20033;-72
2020/12/21 08:58:34;;;;;;;55.22;25.55;;;9.20;56.20;;;;;;5032346;28;20025;-72
2020/12/21 09:01:04;;;;;;;44.65;23.48;;;9.20;56.10;;;;;;5032394;28;20037;-72
2020/12/21 09:03:29;;;;;;;47.63;24.70;;;9.30;56.00;;;;;;5032350;28;20021;-72
2020/12/21 09:05:56;;;;;;;51.38;25.98;;;9.30;55.90;;;;;;5032468;28;20518;-74
2020/12/21 09:08:23;;;;;;;45.30;23.90;;;9.40;55.90;;;;;;5032339;28;20024;-72
2020/12/21 09:10:48;;;;;;;51.25;23.70;;;9.40;55.90;;;;;;5032413;28;20033;-72
2020/12/21 09:13:14;;;;;;;41.78;22.00;;;9.40;56.00;;;;;;5047291;28;20032;-72
2020/12/21 09:15:40;;;;;;;40.33;21.90;;;9.40;56.00;;;;;;5052309;28;20029;-72
2020/12/21 09:18:05;;;;;;;41.30;22.10;;;9.50;56.00;;;;;;5052258;28;20028;-72
2020/12/21 09:20:31;;;;;;;52.35;25.58;;;9.50;56.00;;;;;;5051958;28;20114;-72
2020/12/21 09:22:57;;;;;;;48.67;25.77;;;9.60;55.70;;;;;;5052493;28;20029;-72
2020/12/21 09:25:23;;;;;;;48.75;25.13;;;9.60;55.30;;;;;;5051928;28;20123;-72
2020/12/21 09:27:48;;;;;;;44.35;22.98;;;9.70;55.40;;;;;;5052171;28;20031;-72
2020/12/21 09:30:14;;;;;;;50.47;25.88;;;9.70;55.50;;;;;;5050726;28;20413;-73
2020/12/21 09:32:40;;;;;;;47.80;25.60;;;9.80;55.30;;;;;;5052131;28;20377;-73
2020/12/21 09:35:06;;;;;;;43.83;22.13;;;9.80;55.00;;;;;;5050711;28;20055;-72
2020/12/21 09:37:31;;;;;;;49.80;25.30;;;9.90;55.10;;;;;;5052141;28;20044;-72
2020/12/21 09:39:57;;;;;;;46.05;23.30;;;9.90;55.10;;;;;;5052062;28;20028;-73
2020/12/21 09:42:24;;;;;;;43.97;22.05;;;9.90;55.20;;;;;;5050525;28;20021;-73
2020/12/21 09:44:50;;;;;;;45.85;23.95;;;10.00;55.30;;;;;;5052029;28;20024;-72
2020/12/21 09:47:17;;;;;;;52.25;25.38;;;10.00;55.00;;;;;;5051925;28;20024;-73
2020/12/21 09:49:44;;;;;;;49.42;25.65;;;10.00;54.90;;;;;;5047993;28;20033;-72
2020/12/21 09:52:10;;;;;;;45.83;24.95;;;10.10;55.00;;;;;;5031910;28;20100;-72
2020/12/21 09:54:35;;;;;;;54.88;27.98;;;10.10;54.80;;;;;;5031893;28;20036;-72
2020/12/21 09:57:02;;;;;;;51.58;26.02;;;10.00;54.60;;;;;;5031846;28;20026;-72
2020/12/21 09:59:28;;;;;;;49.65;26.40;;;10.00;55.00;;;;;;5032000;28;20033;-72
2020/12/21 10:01:53;;;;;;;46.08;23.40;;;10.00;54.50;;;;;;5034222;28;20026;-72
2020/12/21 10:04:19;;;;;;;41.75;21.85;;;10.00;54.60;;;;;;5035478;28;20022;-72
2020/12/21 10:06:49;;;;;;;57.55;29.77;;;10.00;54.90;;;;;;5050970;28;20389;-72
2020/12/21 10:09:14;;;;;;;69.65;34.92;;;10.00;54.80;;;;;;5035667;28;20025;-72
2020/12/21 10:11:40;;;;;;;51.05;28.58;;;10.10;54.70;;;;;;5048721;28;20470;-72
2020/12/21 10:14:06;;;;;;;50.22;26.92;;;10.10;54.70;;;;;;5055389;28;20079;-72
2020/12/21 10:16:32;;;;;;;56.47;26.83;;;10.10;54.70;;;;;;5054063;28;20078;-72
2020/12/21 10:18:57;;;;;;;50.00;24.25;;;10.10;54.60;;;;;;5055197;28;20029;-72
2020/12/21 10:21:23;;;;;;;50.05;25.10;;;10.10;54.70;;;;;;5053962;28;20474;-72
2020/12/21 10:23:49;;;;;;;60.63;25.65;;;10.10;54.80;;;;;;5055323;28;20025;-72
2020/12/21 10:26:15;;;;;;;51.42;27.02;;;10.10;54.80;;;;;;5054879;28;20048;-72
2020/12/21 10:28:40;;;;;;;48.42;26.25;;;10.10;54.60;;;;;;5055022;28;20021;-72
2020/12/21 10:31:06;;;;;;;40.10;21.67;;;10.10;54.60;;;;;;5055052;28;20485;-72
2020/12/21 10:33:32;;;;;;;46.22;24.55;;;10.20;54.70;;;;;;5055101;28;20040;-72
2020/12/21 10:35:58;;;;;;;43.83;24.02;;;10.20;54.80;;;;;;5054967;28;20056;-72
2020/12/21 10:38:23;;;;;;;46.38;23.40;;;10.30;54.80;;;;;;5054909;28;20103;-72
2020/12/21 10:40:49;;;;;;;40.40;21.90;;;10.30;54.70;;;;;;5054674;28;20100;-72
2020/12/21 10:43:15;;;;;;;48.70;24.27;;;10.40;54.80;;;;;;5054453;28;20439;-73
2020/12/21 10:45:41;;;;;;;52.03;25.88;;;10.50;54.70;;;;;;5053062;28;20088;-72
2020/12/21 10:48:06;;;;;;;54.30;27.00;;;10.60;54.40;;;;;;5056391;28;20044;-72
2020/12/21 10:50:32;;;;;;;49.20;24.73;;;10.60;54.20;;;;;;5053974;28;20109;-72
2020/12/21 10:52:58;;;;;;;44.95;23.73;;;10.70;54.10;;;;;;5072320;28;20037;-73
2020/12/21 10:55:24;;;;;;;53.35;25.92;;;10.80;54.00;;;;;;5064022;28;20123;-72
2020/12/21 10:57:49;;;;;;;53.33;26.85;;;10.80;53.70;;;;;;5041802;28;20037;-72
2020/12/21 11:00:15;;;;;;;45.58;25.48;;;10.90;53.80;;;;;;5053210;28;20024;-72
2020/12/21 11:02:41;;;;;;;54.83;26.73;;;10.90;53.60;;;;;;5047736;28;20013;-73
2020/12/21 11:05:07;;;;;;;47.92;24.08;;;11.00;53.60;;;;;;5034559;28;20075;-73
2020/12/21 11:07:33;;;;;;;52.47;26.17;;;11.00;53.80;;;;;;5037368;28;20103;-72
2020/12/21 11:09:59;;;;;;;46.30;23.67;;;11.10;53.60;;;;;;5046133;28;20137;-73
2020/12/21 11:12:24;;;;;;;47.58;24.77;;;11.20;53.70;;;;;;5049828;28;20104;-73
2020/12/21 11:14:50;;;;;;;50.20;27.08;;;11.30;53.80;;;;;;5053439;28;20414;-72
2020/12/21 11:17:16;;;;;;;48.90;25.95;;;11.40;53.40;;;;;;5062095;28;20083;-73
2020/12/21 11:19:43;;;;;;;48.88;27.23;;;11.50;53.50;;;;;;5054138;28;20479;-73
2020/12/21 11:22:09;;;;;;;51.90;27.83;;;11.60;53.10;;;;;;5054018;28;20490;-73
2020/12/21 11:24:34;;;;;;;59.08;28.70;;;11.60;52.70;;;;;;5053822;28;20040;-72
2020/12/21 11:27:00;;;;;;;66.63;27.17;;;11.70;52.50;;;;;;5060006;28;20029;-73
2020/12/21 11:29:26;;;;;;;51.90;26.13;;;11.70;52.50;;;;;;5059896;28;20091;-73
2020/12/21 11:31:52;;;;;;;53.97;27.83;;;11.80;52.50;;;;;;5074838;28;20032;-73
2020/12/21 11:34:18;;;;;;;62.17;31.27;;;11.70;52.20;;;;;;5074751;28;20401;-73
2020/12/21 11:36:44;;;;;;;55.83;27.85;;;11.70;52.00;;;;;;5064765;28;20024;-74
2020/12/21 11:39:12;;;;;;;57.55;29.05;;;11.60;52.00;;;;;;5038597;28;20225;-73
2020/12/21 11:41:38;;;;;;;67.35;32.05;;;11.60;52.10;;;;;;5074494;28;20033;-73
2020/12/21 11:44:04;;;;;;;66.32;32.60;;;11.50;51.90;;;;;;5066876;28;20021;-73
2020/12/21 11:46:36;;;;;;;69.78;33.97;;;11.40;51.80;;;;;;5053895;28;20143;-73
2020/12/21 11:49:02;;;;;;;69.57;30.85;;;11.40;51.80;;;;;;5049898;28;20024;-73
2020/12/21 11:51:28;;;;;;;65.10;30.23;;;11.30;52.00;;;;;;5052079;28;20252;-73
2020/12/21 11:53:53;;;;;;;72.75;32.33;;;11.30;52.30;;;;;;5053487;28;20057;-73
2020/12/21 11:56:20;;;;;;;69.60;30.88;;;11.30;52.60;;;;;;5062424;28;20025;-73
2020/12/21 11:58:47;;;;;;;67.53;30.23;;;11.30;52.60;;;;;;5050092;28;20086;-72
2020/12/21 12:01:14;;;;;;;71.88;33.33;;;11.30;52.80;;;;;;5052288;28;20033;-73
2020/12/21 12:03:40;;;;;;;76.78;34.50;;;11.40;52.70;;;;;;5054868;28;20017;-73
2020/12/21 12:06:07;;;;;;;82.95;37.80;;;11.40;53.20;;;;;;5051827;28;20032;-72
2020/12/21 12:08:33;;;;;;;76.75;36.38;;;11.50;52.50;;;;;;5063340;28;20031;-72
2020/12/21 12:10:59;;;;;;;73.28;35.92;;;11.50;52.30;;;;;;5072848;28;20393;-71
2020/12/21 12:13:24;;;;;;;87.88;41.22;;;11.50;52.20;;;;;;5071520;28;20078;-71
2020/12/21 12:15:50;;;;;;;89.03;40.78;;;11.40;51.80;;;;;;5043161;28;20040;-72
2020/12/21 12:18:16;;;;;;;82.43;40.17;;;11.40;51.90;;;;;;5047463;28;20057;-71
2020/12/21 12:20:42;;;;;;;87.45;36.17;;;11.40;52.00;;;;;;5052858;28;20024;-73
2020/12/21 12:23:08;;;;;;;75.07;34.28;;;11.40;52.10;;;;;;5051742;28;20494;-73
2020/12/21 12:25:34;;;;;;;84.03;37.72;;;11.40;52.20;;;;;;5052648;28;20052;-73
2020/12/21 12:28:03;;;;;;;102.22;45.30;;;11.50;52.30;;;;;;5054003;28;20052;-73
2020/12/21 12:30:28;;;;;;;83.57;41.00;;;11.50;52.20;;;;;;5052322;28;20033;-73
2020/12/21 12:32:54;;;;;;;83.53;38.03;;;11.50;52.10;;;;;;5052566;28;20036;-73
2020/12/21 12:35:20;;;;;;;83.38;38.50;;;11.50;52.10;;;;;;5043773;28;20061;-72